sensor_id;sensor_type;location;lat;lon;timestamp;P1;durP1;ratioP1;P2;durP2;ratioP2
45049;SDS011;61798;48.048;-1.928;2022-09-21T00:00:11;7.53;;;4.55;;
45049;SDS011;61798;48.048;-1.928;2022-09-21T00:02:21;7.30;;;4.55;;
45049;SDS011;61798;48.048;-1.928;2022-09-21T00:04:28;5.03;;;3.67;;
45049;SDS011;61798;48.048;-1.928;2022-09-21T00:06:35;8.98;;;5.30;;
45049;SDS011;61798;48.048;-1.928;2022-09-21T00:08:43;7.85;;;4.43;;
45049;SDS011;61798;48.048;-1.928;2022-09-21T00:10:54;7.22;;;4.78;;
45049;SDS011;61798;48.048;-1.928;2022-09-21T00:13:01;7.60;;;5.55;;
45049;SDS011;61798;48.048;-1.928;2022-09-21T00:15:10;6.78;;;5.05;;
45049;SDS011;61798;48.048;-1.928;2022-09-21T00:17:17;7.60;;;4.70;;
45049;SDS011;61798;48.048;-1.928;2022-09-21T00:19:24;5.93;;;4.15;;
45049;SDS011;61798;48.048;-1.928;2022-09-21T00:21:31;8.55;;;4.75;;
45049;SDS011;61798;48.048;-1.928;2022-09-21T00:23:38;6.68;;;4.70;;
45049;SDS011;61798;48.048;-1.928;2022-09-21T00:25:46;6.22;;;4.25;;
45049;SDS011;61798;48.048;-1.928;2022-09-21T00:27:53;8.70;;;4.82;;
45049;SDS011;61798;48.048;-1.928;2022-09-21T00:30:01;4.97;;;4.15;;
45049;SDS011;61798;48.048;-1.928;2022-09-21T00:32:08;7.20;;;4.55;;
45049;SDS011;61798;48.048;-1.928;2022-09-21T00:34:16;5.78;;;4.85;;
45049;SDS011;61798;48.048;-1.928;2022-09-21T00:36:26;5.97;;;4.93;;
45049;SDS011;61798;48.048;-1.928;2022-09-21T00:38:34;4.90;;;3.80;;
45049;SDS011;61798;48.048;-1.928;2022-09-21T00:40:42;5.47;;;4.43;;
45049;SDS011;61798;48.048;-1.928;2022-09-21T00:42:48;8.10;;;4.32;;
45049;SDS011;61798;48.048;-1.928;2022-09-21T00:44:56;7.93;;;4.18;;
45049;SDS011;61798;48.048;-1.928;2022-09-21T00:47:13;7.35;;;4.28;;
45049;SDS011;61798;48.048;-1.928;2022-09-21T00:49:44;5.82;;;4.03;;
45049;SDS011;61798;48.048;-1.928;2022-09-21T00:51:57;6.75;;;4.38;;
45049;SDS011;61798;48.048;-1.928;2022-09-21T00:54:10;10.50;;;4.13;;
45049;SDS011;61798;48.048;-1.928;2022-09-21T00:56:21;5.35;;;4.00;;
45049;SDS011;61798;48.048;-1.928;2022-09-21T00:58:29;4.30;;;3.90;;
45049;SDS011;61798;48.048;-1.928;2022-09-21T01:00:41;6.22;;;4.00;;
45049;SDS011;61798;48.048;-1.928;2022-09-21T01:02:48;7.03;;;4.57;;
45049;SDS011;61798;48.048;-1.928;2022-09-21T01:04:57;8.75;;;4.95;;
45049;SDS011;61798;48.048;-1.928;2022-09-21T01:07:05;6.47;;;4.60;;
45049;SDS011;61798;48.048;-1.928;2022-09-21T01:15:57;9.52;;;5.00;;
45049;SDS011;61798;48.048;-1.928;2022-09-21T01:31:27;7.22;;;4.70;;
45049;SDS011;61798;48.048;-1.928;2022-09-21T01:33:42;5.43;;;4.35;;
45049;SDS011;61798;48.048;-1.928;2022-09-21T01:36:07;6.07;;;4.35;;
45049;SDS011;61798;48.048;-1.928;2022-09-21T01:38:20;6.45;;;5.10;;
45049;SDS011;61798;48.048;-1.928;2022-09-21T01:40:41;6.25;;;5.38;;
45049;SDS011;61798;48.048;-1.928;2022-09-21T01:42:53;6.78;;;5.38;;
45049;SDS011;61798;48.048;-1.928;2022-09-21T01:45:02;6.93;;;5.15;;
45049;SDS011;61798;48.048;-1.928;2022-09-21T01:47:13;7.75;;;6.10;;
45049;SDS011;61798;48.048;-1.928;2022-09-21T01:49:29;8.88;;;5.32;;
45049;SDS011;61798;48.048;-1.928;2022-09-21T01:51:43;7.43;;;5.20;;
45049;SDS011;61798;48.048;-1.928;2022-09-21T01:54:06;8.13;;;5.28;;
45049;SDS011;61798;48.048;-1.928;2022-09-21T01:56:38;7.75;;;4.93;;
45049;SDS011;61798;48.048;-1.928;2022-09-21T02:01:52;10.10;;;5.70;;
45049;SDS011;61798;48.048;-1.928;2022-09-21T02:04:09;7.40;;;5.32;;
45049;SDS011;61798;48.048;-1.928;2022-09-21T02:06:18;7.50;;;5.13;;
45049;SDS011;61798;48.048;-1.928;2022-09-21T02:08:29;7.45;;;5.55;;
45049;SDS011;61798;48.048;-1.928;2022-09-21T02:10:44;6.32;;;4.85;;
45049;SDS011;61798;48.048;-1.928;2022-09-21T02:12:54;8.13;;;5.45;;
45049;SDS011;61798;48.048;-1.928;2022-09-21T02:15:06;7.03;;;5.00;;
45049;SDS011;61798;48.048;-1.928;2022-09-21T02:20:19;6.50;;;4.90;;
45049;SDS011;61798;48.048;-1.928;2022-09-21T02:22:48;8.65;;;4.90;;
45049;SDS011;61798;48.048;-1.928;2022-09-21T02:25:12;6.50;;;5.03;;
45049;SDS011;61798;48.048;-1.928;2022-09-21T02:30:06;8.07;;;5.50;;
45049;SDS011;61798;48.048;-1.928;2022-09-21T02:32:27;7.32;;;5.20;;
45049;SDS011;61798;48.048;-1.928;2022-09-21T02:35:02;7.88;;;5.80;;
45049;SDS011;61798;48.048;-1.928;2022-09-21T02:42:30;8.85;;;6.45;;
45049;SDS011;61798;48.048;-1.928;2022-09-21T02:44:46;6.72;;;5.35;;
45049;SDS011;61798;48.048;-1.928;2022-09-21T02:47:12;8.40;;;6.28;;
45049;SDS011;61798;48.048;-1.928;2022-09-21T02:49:46;10.88;;;5.75;;
45049;SDS011;61798;48.048;-1.928;2022-09-21T02:51:59;9.35;;;5.95;;
45049;SDS011;61798;48.048;-1.928;2022-09-21T02:54:10;8.38;;;6.53;;
45049;SDS011;61798;48.048;-1.928;2022-09-21T02:56:20;9.82;;;7.10;;
45049;SDS011;61798;48.048;-1.928;2022-09-21T02:58:27;11.20;;;6.13;;
45049;SDS011;61798;48.048;-1.928;2022-09-21T03:00:36;9.63;;;6.10;;
45049;SDS011;61798;48.048;-1.928;2022-09-21T03:02:43;9.55;;;5.57;;
45049;SDS011;61798;48.048;-1.928;2022-09-21T03:04:51;8.05;;;6.38;;
45049;SDS011;61798;48.048;-1.928;2022-09-21T03:06:59;8.90;;;6.47;;
45049;SDS011;61798;48.048;-1.928;2022-09-21T03:09:06;8.23;;;5.93;;
45049;SDS011;61798;48.048;-1.928;2022-09-21T03:11:19;9.93;;;6.53;;
45049;SDS011;61798;48.048;-1.928;2022-09-21T03:13:26;10.35;;;6.20;;
45049;SDS011;61798;48.048;-1.928;2022-09-21T03:15:34;10.13;;;7.43;;
45049;SDS011;61798;48.048;-1.928;2022-09-21T03:17:41;12.93;;;7.47;;
45049;SDS011;61798;48.048;-1.928;2022-09-21T03:19:49;10.90;;;7.53;;
45049;SDS011;61798;48.048;-1.928;2022-09-21T03:21:56;9.95;;;6.88;;
45049;SDS011;61798;48.048;-1.928;2022-09-21T03:24:03;10.38;;;7.28;;
45049;SDS011;61798;48.048;-1.928;2022-09-21T03:26:10;8.45;;;7.13;;
45049;SDS011;61798;48.048;-1.928;2022-09-21T03:28:16;9.18;;;7.40;;
45049;SDS011;61798;48.048;-1.928;2022-09-21T03:30:24;9.55;;;7.20;;
45049;SDS011;61798;48.048;-1.928;2022-09-21T03:32:32;11.45;;;7.15;;
45049;SDS011;61798;48.048;-1.928;2022-09-21T03:34:39;10.43;;;7.38;;
45049;SDS011;61798;48.048;-1.928;2022-09-21T03:36:47;10.43;;;7.10;;
45049;SDS011;61798;48.048;-1.928;2022-09-21T03:38:54;10.35;;;7.22;;
45049;SDS011;61798;48.048;-1.928;2022-09-21T03:41:01;8.45;;;6.60;;
45049;SDS011;61798;48.048;-1.928;2022-09-21T03:43:09;10.85;;;7.05;;
45049;SDS011;61798;48.048;-1.928;2022-09-21T03:45:16;9.82;;;7.40;;
45049;SDS011;61798;48.048;-1.928;2022-09-21T03:47:23;10.68;;;6.68;;
45049;SDS011;61798;48.048;-1.928;2022-09-21T03:49:30;9.43;;;7.05;;
45049;SDS011;61798;48.048;-1.928;2022-09-21T03:51:36;11.68;;;7.22;;
45049;SDS011;61798;48.048;-1.928;2022-09-21T03:53:43;8.38;;;6.63;;
45049;SDS011;61798;48.048;-1.928;2022-09-21T03:55:51;9.35;;;6.75;;
45049;SDS011;61798;48.048;-1.928;2022-09-21T03:57:58;9.70;;;6.65;;
45049;SDS011;61798;48.048;-1.928;2022-09-21T04:00:07;9.52;;;6.40;;
45049;SDS011;61798;48.048;-1.928;2022-09-21T04:02:16;8.40;;;6.65;;
45049;SDS011;61798;48.048;-1.928;2022-09-21T04:04:23;14.93;;;6.85;;
45049;SDS011;61798;48.048;-1.928;2022-09-21T04:06:30;9.38;;;7.70;;
45049;SDS011;61798;48.048;-1.928;2022-09-21T04:08:38;8.80;;;7.28;;
45049;SDS011;61798;48.048;-1.928;2022-09-21T04:10:45;9.80;;;7.20;;
45049;SDS011;61798;48.048;-1.928;2022-09-21T04:12:55;8.25;;;6.18;;
45049;SDS011;61798;48.048;-1.928;2022-09-21T04:15:03;9.45;;;6.20;;
45049;SDS011;61798;48.048;-1.928;2022-09-21T04:17:13;11.65;;;7.25;;
45049;SDS011;61798;48.048;-1.928;2022-09-21T04:19:20;11.90;;;6.88;;
45049;SDS011;61798;48.048;-1.928;2022-09-21T04:21:27;9.60;;;7.05;;
45049;SDS011;61798;48.048;-1.928;2022-09-21T04:23:36;11.57;;;6.63;;
45049;SDS011;61798;48.048;-1.928;2022-09-21T04:25:43;8.98;;;6.72;;
45049;SDS011;61798;48.048;-1.928;2022-09-21T04:27:52;10.35;;;6.60;;
45049;SDS011;61798;48.048;-1.928;2022-09-21T04:29:59;9.45;;;6.80;;
45049;SDS011;61798;48.048;-1.928;2022-09-21T04:32:06;9.48;;;7.07;;
45049;SDS011;61798;48.048;-1.928;2022-09-21T04:34:13;10.43;;;6.63;;
45049;SDS011;61798;48.048;-1.928;2022-09-21T04:36:21;11.63;;;6.80;;
45049;SDS011;61798;48.048;-1.928;2022-09-21T04:38:30;8.93;;;6.70;;
45049;SDS011;61798;48.048;-1.928;2022-09-21T04:40:38;8.43;;;7.25;;
45049;SDS011;61798;48.048;-1.928;2022-09-21T04:42:49;10.05;;;6.95;;
45049;SDS011;61798;48.048;-1.928;2022-09-21T04:44:57;14.30;;;6.88;;
45049;SDS011;61798;48.048;-1.928;2022-09-21T04:47:05;8.93;;;6.53;;
45049;SDS011;61798;48.048;-1.928;2022-09-21T04:49:12;12.05;;;7.20;;
45049;SDS011;61798;48.048;-1.928;2022-09-21T04:51:19;7.38;;;5.30;;
45049;SDS011;61798;48.048;-1.928;2022-09-21T04:53:25;10.75;;;6.88;;
45049;SDS011;61798;48.048;-1.928;2022-09-21T04:55:32;9.30;;;6.78;;
45049;SDS011;61798;48.048;-1.928;2022-09-21T04:57:39;10.13;;;6.47;;
45049;SDS011;61798;48.048;-1.928;2022-09-21T04:59:46;10.60;;;6.43;;
45049;SDS011;61798;48.048;-1.928;2022-09-21T05:01:55;8.90;;;6.90;;
45049;SDS011;61798;48.048;-1.928;2022-09-21T05:04:01;10.90;;;6.97;;
45049;SDS011;61798;48.048;-1.928;2022-09-21T05:06:08;7.55;;;6.00;;
45049;SDS011;61798;48.048;-1.928;2022-09-21T05:08:17;10.00;;;6.70;;
45049;SDS011;61798;48.048;-1.928;2022-09-21T05:10:49;9.32;;;6.82;;
45049;SDS011;61798;48.048;-1.928;2022-09-21T05:12:58;9.73;;;7.13;;
45049;SDS011;61798;48.048;-1.928;2022-09-21T05:15:08;7.90;;;6.32;;
45049;SDS011;61798;48.048;-1.928;2022-09-21T05:17:17;9.25;;;6.57;;
45049;SDS011;61798;48.048;-1.928;2022-09-21T05:19:29;10.15;;;7.03;;
45049;SDS011;61798;48.048;-1.928;2022-09-21T05:21:35;9.75;;;6.50;;
45049;SDS011;61798;48.048;-1.928;2022-09-21T05:23:41;16.77;;;9.20;;
45049;SDS011;61798;48.048;-1.928;2022-09-21T05:25:47;12.98;;;8.20;;
45049;SDS011;61798;48.048;-1.928;2022-09-21T05:27:54;12.32;;;6.97;;
45049;SDS011;61798;48.048;-1.928;2022-09-21T05:29:59;9.02;;;7.13;;
45049;SDS011;61798;48.048;-1.928;2022-09-21T05:32:08;10.73;;;6.78;;
45049;SDS011;61798;48.048;-1.928;2022-09-21T05:36:52;10.15;;;7.13;;
45049;SDS011;61798;48.048;-1.928;2022-09-21T05:39:02;10.65;;;7.07;;
45049;SDS011;61798;48.048;-1.928;2022-09-21T05:41:08;11.35;;;6.72;;
45049;SDS011;61798;48.048;-1.928;2022-09-21T05:43:14;9.38;;;7.10;;
45049;SDS011;61798;48.048;-1.928;2022-09-21T05:45:22;8.23;;;7.40;;
45049;SDS011;61798;48.048;-1.928;2022-09-21T05:50:32;10.45;;;7.20;;
45049;SDS011;61798;48.048;-1.928;2022-09-21T05:52:37;11.35;;;7.53;;
45049;SDS011;61798;48.048;-1.928;2022-09-21T05:57:13;11.40;;;6.97;;
45049;SDS011;61798;48.048;-1.928;2022-09-21T06:04:22;12.75;;;7.22;;
45049;SDS011;61798;48.048;-1.928;2022-09-21T06:06:29;9.57;;;6.38;;
45049;SDS011;61798;48.048;-1.928;2022-09-21T06:08:36;8.95;;;6.93;;
45049;SDS011;61798;48.048;-1.928;2022-09-21T06:10:42;10.90;;;7.22;;
45049;SDS011;61798;48.048;-1.928;2022-09-21T06:12:48;10.45;;;7.10;;
45049;SDS011;61798;48.048;-1.928;2022-09-21T06:14:53;10.63;;;6.57;;
45049;SDS011;61798;48.048;-1.928;2022-09-21T06:17:01;8.65;;;6.45;;
45049;SDS011;61798;48.048;-1.928;2022-09-21T06:19:12;7.57;;;5.80;;
45049;SDS011;61798;48.048;-1.928;2022-09-21T06:21:20;9.93;;;6.85;;
45049;SDS011;61798;48.048;-1.928;2022-09-21T06:23:27;14.38;;;6.85;;
45049;SDS011;61798;48.048;-1.928;2022-09-21T06:25:36;9.73;;;6.65;;
45049;SDS011;61798;48.048;-1.928;2022-09-21T06:27:47;11.55;;;6.63;;
45049;SDS011;61798;48.048;-1.928;2022-09-21T06:29:56;8.27;;;6.75;;
45049;SDS011;61798;48.048;-1.928;2022-09-21T06:32:04;9.80;;;6.82;;
45049;SDS011;61798;48.048;-1.928;2022-09-21T06:34:23;11.40;;;7.20;;
45049;SDS011;61798;48.048;-1.928;2022-09-21T06:36:33;10.65;;;6.50;;
45049;SDS011;61798;48.048;-1.928;2022-09-21T06:38:42;10.63;;;7.53;;
45049;SDS011;61798;48.048;-1.928;2022-09-21T06:40:53;10.82;;;7.10;;
45049;SDS011;61798;48.048;-1.928;2022-09-21T06:43:29;9.25;;;6.68;;
45049;SDS011;61798;48.048;-1.928;2022-09-21T06:45:40;7.33;;;5.90;;
45049;SDS011;61798;48.048;-1.928;2022-09-21T06:47:46;13.00;;;6.53;;
45049;SDS011;61798;48.048;-1.928;2022-09-21T06:50:00;11.93;;;6.57;;
45049;SDS011;61798;48.048;-1.928;2022-09-21T06:52:09;8.93;;;6.65;;
45049;SDS011;61798;48.048;-1.928;2022-09-21T06:54:15;7.28;;;5.10;;
45049;SDS011;61798;48.048;-1.928;2022-09-21T06:56:23;9.02;;;6.63;;
45049;SDS011;61798;48.048;-1.928;2022-09-21T06:58:30;11.50;;;6.80;;
45049;SDS011;61798;48.048;-1.928;2022-09-21T07:00:38;9.73;;;6.97;;
45049;SDS011;61798;48.048;-1.928;2022-09-21T07:02:44;10.30;;;6.50;;
45049;SDS011;61798;48.048;-1.928;2022-09-21T07:04:50;9.10;;;6.75;;
45049;SDS011;61798;48.048;-1.928;2022-09-21T07:06:56;10.90;;;6.78;;
45049;SDS011;61798;48.048;-1.928;2022-09-21T07:09:02;10.65;;;6.25;;
45049;SDS011;61798;48.048;-1.928;2022-09-21T07:11:08;8.90;;;6.63;;
45049;SDS011;61798;48.048;-1.928;2022-09-21T07:13:15;8.68;;;5.10;;
45049;SDS011;61798;48.048;-1.928;2022-09-21T07:15:22;12.70;;;6.97;;
45049;SDS011;61798;48.048;-1.928;2022-09-21T07:17:32;11.13;;;5.88;;
45049;SDS011;61798;48.048;-1.928;2022-09-21T07:19:45;9.50;;;6.60;;
45049;SDS011;61798;48.048;-1.928;2022-09-21T07:21:52;14.50;;;6.38;;
45049;SDS011;61798;48.048;-1.928;2022-09-21T07:24:00;9.70;;;5.90;;
45049;SDS011;61798;48.048;-1.928;2022-09-21T07:26:07;11.30;;;7.45;;
45049;SDS011;61798;48.048;-1.928;2022-09-21T07:28:17;10.13;;;7.28;;
45049;SDS011;61798;48.048;-1.928;2022-09-21T07:30:23;8.68;;;6.03;;
45049;SDS011;61798;48.048;-1.928;2022-09-21T07:32:29;11.75;;;7.28;;
45049;SDS011;61798;48.048;-1.928;2022-09-21T07:34:36;13.27;;;7.53;;
45049;SDS011;61798;48.048;-1.928;2022-09-21T07:36:48;12.10;;;7.68;;
45049;SDS011;61798;48.048;-1.928;2022-09-21T07:38:55;9.27;;;6.85;;
45049;SDS011;61798;48.048;-1.928;2022-09-21T07:41:00;9.57;;;7.00;;
45049;SDS011;61798;48.048;-1.928;2022-09-21T07:43:09;9.43;;;6.35;;
45049;SDS011;61798;48.048;-1.928;2022-09-21T07:45:15;9.95;;;6.80;;
45049;SDS011;61798;48.048;-1.928;2022-09-21T07:47:23;9.73;;;6.45;;
45049;SDS011;61798;48.048;-1.928;2022-09-21T07:49:30;10.52;;;8.07;;
45049;SDS011;61798;48.048;-1.928;2022-09-21T07:51:35;15.07;;;8.63;;
45049;SDS011;61798;48.048;-1.928;2022-09-21T07:53:43;9.73;;;7.05;;
45049;SDS011;61798;48.048;-1.928;2022-09-21T07:55:49;10.43;;;7.95;;
45049;SDS011;61798;48.048;-1.928;2022-09-21T07:57:55;12.38;;;8.23;;
45049;SDS011;61798;48.048;-1.928;2022-09-21T08:00:19;11.02;;;8.43;;
45049;SDS011;61798;48.048;-1.928;2022-09-21T08:02:25;14.18;;;8.63;;
45049;SDS011;61798;48.048;-1.928;2022-09-21T08:04:31;15.88;;;8.60;;
45049;SDS011;61798;48.048;-1.928;2022-09-21T08:06:37;14.63;;;8.95;;
45049;SDS011;61798;48.048;-1.928;2022-09-21T08:08:44;10.98;;;7.90;;
45049;SDS011;61798;48.048;-1.928;2022-09-21T08:10:52;11.60;;;8.95;;
45049;SDS011;61798;48.048;-1.928;2022-09-21T08:12:58;10.45;;;7.60;;
45049;SDS011;61798;48.048;-1.928;2022-09-21T08:15:04;10.00;;;8.13;;
45049;SDS011;61798;48.048;-1.928;2022-09-21T08:17:10;13.80;;;8.65;;
45049;SDS011;61798;48.048;-1.928;2022-09-21T08:19:16;11.77;;;7.80;;
45049;SDS011;61798;48.048;-1.928;2022-09-21T08:21:22;14.88;;;8.40;;
45049;SDS011;61798;48.048;-1.928;2022-09-21T08:23:28;12.77;;;7.25;;
45049;SDS011;61798;48.048;-1.928;2022-09-21T08:25:34;11.75;;;8.38;;
45049;SDS011;61798;48.048;-1.928;2022-09-21T08:27:40;10.40;;;7.65;;
45049;SDS011;61798;48.048;-1.928;2022-09-21T08:29:46;9.35;;;7.50;;
45049;SDS011;61798;48.048;-1.928;2022-09-21T08:31:52;11.68;;;6.70;;
45049;SDS011;61798;48.048;-1.928;2022-09-21T08:33:58;9.85;;;7.57;;
45049;SDS011;61798;48.048;-1.928;2022-09-21T08:36:05;9.57;;;7.28;;
45049;SDS011;61798;48.048;-1.928;2022-09-21T08:38:11;10.43;;;7.63;;
45049;SDS011;61798;48.048;-1.928;2022-09-21T08:40:17;10.55;;;7.63;;
45049;SDS011;61798;48.048;-1.928;2022-09-21T08:45:12;13.07;;;6.60;;
45049;SDS011;61798;48.048;-1.928;2022-09-21T08:47:25;11.60;;;6.53;;
45049;SDS011;61798;48.048;-1.928;2022-09-21T08:49:40;12.27;;;6.65;;
45049;SDS011;61798;48.048;-1.928;2022-09-21T08:51:59;11.27;;;7.15;;
45049;SDS011;61798;48.048;-1.928;2022-09-21T08:54:12;8.23;;;7.20;;
45049;SDS011;61798;48.048;-1.928;2022-09-21T08:56:24;10.02;;;6.95;;
45049;SDS011;61798;48.048;-1.928;2022-09-21T08:58:31;8.35;;;6.60;;
45049;SDS011;61798;48.048;-1.928;2022-09-21T09:00:37;10.32;;;6.88;;
45049;SDS011;61798;48.048;-1.928;2022-09-21T09:14:56;7.70;;;5.88;;
45049;SDS011;61798;48.048;-1.928;2022-09-21T09:19:40;13.82;;;6.50;;
45049;SDS011;61798;48.048;-1.928;2022-09-21T09:21:52;14.60;;;6.50;;
45049;SDS011;61798;48.048;-1.928;2022-09-21T09:24:18;8.68;;;6.25;;
45049;SDS011;61798;48.048;-1.928;2022-09-21T09:29:10;9.00;;;6.35;;
45049;SDS011;61798;48.048;-1.928;2022-09-21T09:31:31;6.38;;;5.20;;
45049;SDS011;61798;48.048;-1.928;2022-09-21T09:33:47;7.75;;;6.15;;
45049;SDS011;61798;48.048;-1.928;2022-09-21T09:36:02;9.25;;;6.43;;
45049;SDS011;61798;48.048;-1.928;2022-09-21T09:38:13;10.50;;;6.70;;
45049;SDS011;61798;48.048;-1.928;2022-09-21T09:40:30;9.88;;;5.57;;
45049;SDS011;61798;48.048;-1.928;2022-09-21T09:43:03;11.10;;;6.10;;
45049;SDS011;61798;48.048;-1.928;2022-09-21T09:50:32;9.45;;;5.55;;
45049;SDS011;61798;48.048;-1.928;2022-09-21T09:52:40;10.32;;;5.32;;
45049;SDS011;61798;48.048;-1.928;2022-09-21T09:54:47;8.80;;;4.85;;
45049;SDS011;61798;48.048;-1.928;2022-09-21T09:56:55;11.38;;;5.43;;
45049;SDS011;61798;48.048;-1.928;2022-09-21T09:59:02;9.48;;;6.07;;
45049;SDS011;61798;48.048;-1.928;2022-09-21T10:03:44;8.85;;;5.20;;
45049;SDS011;61798;48.048;-1.928;2022-09-21T10:06:15;7.28;;;4.68;;
45049;SDS011;61798;48.048;-1.928;2022-09-21T10:08:41;8.65;;;4.63;;
45049;SDS011;61798;48.048;-1.928;2022-09-21T10:10:50;12.77;;;5.22;;
45049;SDS011;61798;48.048;-1.928;2022-09-21T10:13:12;5.60;;;4.20;;
45049;SDS011;61798;48.048;-1.928;2022-09-21T10:15:30;9.52;;;4.78;;
45049;SDS011;61798;48.048;-1.928;2022-09-21T10:17:40;11.18;;;5.25;;
45049;SDS011;61798;48.048;-1.928;2022-09-21T10:19:59;6.63;;;4.25;;
45049;SDS011;61798;48.048;-1.928;2022-09-21T10:22:17;9.50;;;3.80;;
45049;SDS011;61798;48.048;-1.928;2022-09-21T10:24:29;5.15;;;3.22;;
45049;SDS011;61798;48.048;-1.928;2022-09-21T10:29:15;6.47;;;3.40;;
45049;SDS011;61798;48.048;-1.928;2022-09-21T10:31:28;8.65;;;4.45;;
45049;SDS011;61798;48.048;-1.928;2022-09-21T10:33:45;6.75;;;4.00;;
45049;SDS011;61798;48.048;-1.928;2022-09-21T10:36:02;6.90;;;3.33;;
45049;SDS011;61798;48.048;-1.928;2022-09-21T10:38:16;6.25;;;3.70;;
45049;SDS011;61798;48.048;-1.928;2022-09-21T10:40:34;5.47;;;3.22;;
45049;SDS011;61798;48.048;-1.928;2022-09-21T10:42:50;5.18;;;3.10;;
45049;SDS011;61798;48.048;-1.928;2022-09-21T10:45:04;5.93;;;4.15;;
45049;SDS011;61798;48.048;-1.928;2022-09-21T10:47:39;5.82;;;3.50;;
45049;SDS011;61798;48.048;-1.928;2022-09-21T10:52:56;8.65;;;3.30;;
45049;SDS011;61798;48.048;-1.928;2022-09-21T10:55:17;5.18;;;2.72;;
45049;SDS011;61798;48.048;-1.928;2022-09-21T10:57:30;5.68;;;2.83;;
45049;SDS011;61798;48.048;-1.928;2022-09-21T10:59:47;4.72;;;2.35;;
45049;SDS011;61798;48.048;-1.928;2022-09-21T11:01:56;4.72;;;2.35;;
45049;SDS011;61798;48.048;-1.928;2022-09-21T11:04:08;3.78;;;2.25;;
45049;SDS011;61798;48.048;-1.928;2022-09-21T11:06:43;3.80;;;2.05;;
45049;SDS011;61798;48.048;-1.928;2022-09-21T11:09:02;5.40;;;2.60;;
45049;SDS011;61798;48.048;-1.928;2022-09-21T11:11:41;3.65;;;2.63;;
45049;SDS011;61798;48.048;-1.928;2022-09-21T11:14:08;3.80;;;2.53;;
45049;SDS011;61798;48.048;-1.928;2022-09-21T11:27:14;3.15;;;1.90;;
45049;SDS011;61798;48.048;-1.928;2022-09-21T11:29:47;4.88;;;1.90;;
45049;SDS011;61798;48.048;-1.928;2022-09-21T11:37:01;3.72;;;1.90;;
45049;SDS011;61798;48.048;-1.928;2022-09-21T11:41:57;2.65;;;1.60;;
45049;SDS011;61798;48.048;-1.928;2022-09-21T11:54:25;4.63;;;1.40;;
45049;SDS011;61798;48.048;-1.928;2022-09-21T11:56:48;2.30;;;1.17;;
45049;SDS011;61798;48.048;-1.928;2022-09-21T12:04:56;2.88;;;1.40;;
45049;SDS011;61798;48.048;-1.928;2022-09-21T12:10:17;4.00;;;1.27;;
45049;SDS011;61798;48.048;-1.928;2022-09-21T12:12:55;3.78;;;1.38;;
45049;SDS011;61798;48.048;-1.928;2022-09-21T12:15:25;2.55;;;1.40;;
45049;SDS011;61798;48.048;-1.928;2022-09-21T12:22:31;5.85;;;1.30;;
45049;SDS011;61798;48.048;-1.928;2022-09-21T12:25:04;3.65;;;1.20;;
45049;SDS011;61798;48.048;-1.928;2022-09-21T12:27:56;7.43;;;1.40;;
45049;SDS011;61798;48.048;-1.928;2022-09-21T12:29:59;4.43;;;1.42;;
45049;SDS011;61798;48.048;-1.928;2022-09-21T12:32:36;6.45;;;1.95;;
45049;SDS011;61798;48.048;-1.928;2022-09-21T12:34:45;2.63;;;1.45;;
45049;SDS011;61798;48.048;-1.928;2022-09-21T12:37:39;2.05;;;1.38;;
45049;SDS011;61798;48.048;-1.928;2022-09-21T12:39:31;5.97;;;1.15;;
45049;SDS011;61798;48.048;-1.928;2022-09-21T12:41:58;5.07;;;1.70;;
45049;SDS011;61798;48.048;-1.928;2022-09-21T12:47:02;4.15;;;1.10;;
45049;SDS011;61798;48.048;-1.928;2022-09-21T12:49:20;3.13;;;1.23;;
45049;SDS011;61798;48.048;-1.928;2022-09-21T12:51:32;2.65;;;1.25;;
45049;SDS011;61798;48.048;-1.928;2022-09-21T12:53:43;6.78;;;1.38;;
45049;SDS011;61798;48.048;-1.928;2022-09-21T13:00:43;4.00;;;1.25;;
45049;SDS011;61798;48.048;-1.928;2022-09-21T13:05:42;6.90;;;1.50;;
45049;SDS011;61798;48.048;-1.928;2022-09-21T13:08:12;10.98;;;1.33;;
45049;SDS011;61798;48.048;-1.928;2022-09-21T13:13:03;4.40;;;1.00;;
45049;SDS011;61798;48.048;-1.928;2022-09-21T13:15:19;3.55;;;1.88;;
45049;SDS011;61798;48.048;-1.928;2022-09-21T13:17:36;5.22;;;1.33;;
45049;SDS011;61798;48.048;-1.928;2022-09-21T13:19:43;4.95;;;1.63;;
45049;SDS011;61798;48.048;-1.928;2022-09-21T13:22:21;6.28;;;1.35;;
45049;SDS011;61798;48.048;-1.928;2022-09-21T13:24:30;4.10;;;0.93;;
45049;SDS011;61798;48.048;-1.928;2022-09-21T13:26:38;5.18;;;1.20;;
45049;SDS011;61798;48.048;-1.928;2022-09-21T13:33:28;5.07;;;1.50;;
45049;SDS011;61798;48.048;-1.928;2022-09-21T13:40:55;2.97;;;1.50;;
45049;SDS011;61798;48.048;-1.928;2022-09-21T13:43:14;1.85;;;1.27;;
45049;SDS011;61798;48.048;-1.928;2022-09-21T13:47:39;3.72;;;1.15;;
45049;SDS011;61798;48.048;-1.928;2022-09-21T13:49:51;2.90;;;0.80;;
45049;SDS011;61798;48.048;-1.928;2022-09-21T13:52:20;2.65;;;1.17;;
45049;SDS011;61798;48.048;-1.928;2022-09-21T13:54:48;4.40;;;1.10;;
45049;SDS011;61798;48.048;-1.928;2022-09-21T13:59:34;3.53;;;1.20;;
45049;SDS011;61798;48.048;-1.928;2022-09-21T14:01:44;4.25;;;1.02;;
45049;SDS011;61798;48.048;-1.928;2022-09-21T14:03:56;5.25;;;1.23;;
45049;SDS011;61798;48.048;-1.928;2022-09-21T14:06:08;3.50;;;1.38;;
45049;SDS011;61798;48.048;-1.928;2022-09-21T14:10:36;3.90;;;1.13;;
45049;SDS011;61798;48.048;-1.928;2022-09-21T14:12:43;2.67;;;1.00;;
45049;SDS011;61798;48.048;-1.928;2022-09-21T14:17:38;3.05;;;1.35;;
45049;SDS011;61798;48.048;-1.928;2022-09-21T14:24:19;4.63;;;1.10;;
45049;SDS011;61798;48.048;-1.928;2022-09-21T14:28:47;4.15;;;1.20;;
45049;SDS011;61798;48.048;-1.928;2022-09-21T14:30:59;3.88;;;1.00;;
45049;SDS011;61798;48.048;-1.928;2022-09-21T14:36:07;4.88;;;1.13;;
45049;SDS011;61798;48.048;-1.928;2022-09-21T14:40:33;4.68;;;1.27;;
45049;SDS011;61798;48.048;-1.928;2022-09-21T14:42:42;5.30;;;1.00;;
45049;SDS011;61798;48.048;-1.928;2022-09-21T14:44:49;5.32;;;1.15;;
45049;SDS011;61798;48.048;-1.928;2022-09-21T15:04:36;4.60;;;1.00;;
45049;SDS011;61798;48.048;-1.928;2022-09-21T15:09:16;1.38;;;0.73;;
45049;SDS011;61798;48.048;-1.928;2022-09-21T15:11:49;0.80;;;0.50;;
45049;SDS011;61798;48.048;-1.928;2022-09-21T15:14:23;1.67;;;0.77;;
45049;SDS011;61798;48.048;-1.928;2022-09-21T15:19:14;1.40;;;0.82;;
45049;SDS011;61798;48.048;-1.928;2022-09-21T15:21:30;3.05;;;1.20;;
45049;SDS011;61798;48.048;-1.928;2022-09-21T15:23:37;1.73;;;0.63;;
45049;SDS011;61798;48.048;-1.928;2022-09-21T15:25:52;1.33;;;0.70;;
45049;SDS011;61798;48.048;-1.928;2022-09-21T15:28:09;1.15;;;0.70;;
45049;SDS011;61798;48.048;-1.928;2022-09-21T15:32:40;1.70;;;0.65;;
45049;SDS011;61798;48.048;-1.928;2022-09-21T15:34:56;2.35;;;0.73;;
45049;SDS011;61798;48.048;-1.928;2022-09-21T15:37:14;2.88;;;0.80;;
45049;SDS011;61798;48.048;-1.928;2022-09-21T15:39:25;1.33;;;0.80;;
45049;SDS011;61798;48.048;-1.928;2022-09-21T15:43:40;5.53;;;1.38;;
45049;SDS011;61798;48.048;-1.928;2022-09-21T15:45:52;2.58;;;0.80;;
45049;SDS011;61798;48.048;-1.928;2022-09-21T15:48:04;3.78;;;0.70;;
45049;SDS011;61798;48.048;-1.928;2022-09-21T15:50:33;1.58;;;0.73;;
45049;SDS011;61798;48.048;-1.928;2022-09-21T15:52:55;1.70;;;0.80;;
45049;SDS011;61798;48.048;-1.928;2022-09-21T15:55:16;1.40;;;0.88;;
45049;SDS011;61798;48.048;-1.928;2022-09-21T15:57:42;2.58;;;0.70;;
45049;SDS011;61798;48.048;-1.928;2022-09-21T15:59:50;1.98;;;0.60;;
45049;SDS011;61798;48.048;-1.928;2022-09-21T16:01:58;3.35;;;0.80;;
45049;SDS011;61798;48.048;-1.928;2022-09-21T16:04:21;2.83;;;1.15;;
45049;SDS011;61798;48.048;-1.928;2022-09-21T16:06:38;1.73;;;0.80;;
45049;SDS011;61798;48.048;-1.928;2022-09-21T16:08:52;3.53;;;0.80;;
45049;SDS011;61798;48.048;-1.928;2022-09-21T16:13:33;3.38;;;0.90;;
45049;SDS011;61798;48.048;-1.928;2022-09-21T16:16:06;1.20;;;0.65;;
45049;SDS011;61798;48.048;-1.928;2022-09-21T16:18:31;1.38;;;0.60;;